Time;durP1;ratioP1;P1;durP2;ratioP2;P2;SDS_P1;SDS_P2;PMS_P1;PMS_P2;Temp;Humidity;BMP_temperature;BMP_pressure;BME280_temperature;BME280_humidity;BME280_pressure;Samples;Min_cycle;Max_cycle;Signal;HPM_P1;HPM_P2
2023/12/06 00:01:02;;;;;;;1.60;1.50;;;1.60;99.90;;;;;;5033047;28;20229;-81
2023/12/06 00:03:28;;;;;;;1.77;1.60;;;1.60;99.90;;;;;;5033684;28;20249;-81
2023/12/06 00:05:54;;;;;;;1.53;1.43;;;1.50;99.90;;;;;;5033610;28;20181;-81
2023/12/06 00:08:19;;;;;;;1.63;1.53;;;1.60;99.90;;;;;;5033751;28;20176;-81
2023/12/06 00:10:47;;;;;;;1.87;1.63;;;1.50;99.90;;;;;;5032655;28;20698;-81
2023/12/06 00:13:13;;;;;;;1.70;1.60;;;1.50;99.90;;;;;;5034663;28;20198;-81
2023/12/06 00:15:38;;;;;;;1.70;1.60;;;1.50;99.90;;;;;;5033205;28;20187;-80
2023/12/06 00:18:04;;;;;;;1.70;1.60;;;1.50;99.90;;;;;;5033306;28;20167;-80
2023/12/06 00:20:29;;;;;;;1.70;1.60;;;1.50;99.90;;;;;;5034065;28;20180;-81
2023/12/06 00:22:55;;;;;;;1.90;1.60;;;1.40;99.90;;;;;;5033132;28;20206;-81
2023/12/06 00:25:20;;;;;;;1.70;1.60;;;1.40;99.90;;;;;;5034559;28;20198;-81
2023/12/06 00:27:46;;;;;;;2.13;1.97;;;1.50;99.90;;;;;;5034351;28;20736;-80
2023/12/06 00:30:12;;;;;;;2.10;1.90;;;1.50;99.90;;;;;;5034272;28;20176;-80
2023/12/06 00:32:37;;;;;;;2.10;1.90;;;1.50;99.90;;;;;;5031252;28;20210;-81
2023/12/06 00:35:03;;;;;;;1.67;1.57;;;1.50;99.90;;;;;;5032961;28;20183;-81
2023/12/06 00:37:29;;;;;;;1.77;1.67;;;1.50;99.90;;;;;;5034350;28;20562;-80
2023/12/06 00:39:54;;;;;;;1.60;1.50;;;1.50;99.90;;;;;;5033751;28;20175;-81
2023/12/06 00:42:20;;;;;;;1.80;1.70;;;1.50;99.90;;;;;;5032992;28;20611;-81
2023/12/06 00:44:46;;;;;;;1.70;1.60;;;1.50;99.90;;;;;;5034174;28;20193;-81
2023/12/06 00:47:11;;;;;;;1.80;1.70;;;1.50;99.90;;;;;;5032880;28;20183;-81
2023/12/06 00:49:37;;;;;;;1.63;1.53;;;1.50;99.90;;;;;;5032562;28;20185;-81
2023/12/06 00:52:02;;;;;;;1.53;1.43;;;1.50;99.90;;;;;;5030200;28;20231;-80
2023/12/06 00:54:28;;;;;;;1.70;1.60;;;1.60;99.90;;;;;;5034160;28;20555;-81
2023/12/06 00:56:54;;;;;;;1.60;1.50;;;1.50;99.90;;;;;;5033000;28;20208;-81
2023/12/06 00:59:19;;;;;;;1.70;1.60;;;1.60;99.90;;;;;;5033514;28;20180;-80
2023/12/06 01:01:45;;;;;;;1.77;1.67;;;1.60;99.90;;;;;;5033846;28;20294;-81
2023/12/06 01:04:11;;;;;;;1.83;1.70;;;1.60;99.90;;;;;;5032322;28;20185;-81
2023/12/06 01:06:36;;;;;;;1.87;1.77;;;1.60;99.90;;;;;;5032468;28;20251;-81
2023/12/06 01:09:03;;;;;;;1.77;1.67;;;1.60;99.90;;;;;;5033603;28;20179;-81
2023/12/06 01:11:28;;;;;;;2.33;2.13;;;1.60;99.90;;;;;;5032264;28;20555;-81
2023/12/06 01:13:54;;;;;;;2.30;2.10;;;1.70;99.90;;;;;;5032067;28;20211;-81
2023/12/06 01:16:20;;;;;;;2.37;2.10;;;1.70;99.90;;;;;;5032826;28;20173;-81
2023/12/06 01:18:45;;;;;;;2.40;2.20;;;1.70;99.90;;;;;;5032100;28;20201;-80
2023/12/06 01:21:11;;;;;;;2.30;2.10;;;1.70;99.90;;;;;;5033168;28;20261;-80
2023/12/06 01:23:36;;;;;;;2.10;1.90;;;1.70;99.90;;;;;;5032144;28;20205;-80
2023/12/06 01:26:02;;;;;;;2.80;2.60;;;1.70;99.90;;;;;;5032249;28;20180;-81
2023/12/06 01:28:28;;;;;;;3.27;2.60;;;1.80;99.90;;;;;;5033422;28;20200;-81
2023/12/06 01:30:53;;;;;;;3.10;2.80;;;1.80;99.90;;;;;;5032769;28;20719;-81
2023/12/06 01:33:19;;;;;;;2.70;2.50;;;1.80;99.90;;;;;;5033484;28;20193;-81
2023/12/06 01:35:45;;;;;;;3.20;2.70;;;1.80;99.90;;;;;;5033297;28;20573;-80
2023/12/06 01:38:10;;;;;;;3.63;2.70;;;1.80;99.90;;;;;;5033241;28;20172;-81
2023/12/06 01:40:36;;;;;;;2.63;2.43;;;1.80;99.90;;;;;;5031337;28;20565;-81
2023/12/06 01:43:02;;;;;;;2.60;2.40;;;1.80;99.90;;;;;;5031697;28;20211;-81
2023/12/06 01:45:28;;;;;;;2.40;2.20;;;1.80;99.90;;;;;;5032020;28;20253;-81
2023/12/06 01:47:54;;;;;;;3.00;2.70;;;1.80;99.90;;;;;;5032146;28;20183;-81
2023/12/06 01:50:21;;;;;;;2.90;2.57;;;1.80;99.90;;;;;;5032658;28;20185;-81
2023/12/06 01:52:47;;;;;;;2.90;2.43;;;1.80;99.90;;;;;;5032813;28;20211;-81
2023/12/06 01:55:13;;;;;;;3.00;2.43;;;1.80;99.90;;;;;;5031551;28;20285;-81
2023/12/06 01:57:40;;;;;;;2.60;2.20;;;1.80;99.90;;;;;;5031664;28;20177;-81
2023/12/06 02:00:07;;;;;;;2.50;2.30;;;1.80;99.90;;;;;;5031188;28;20200;-81
2023/12/06 02:02:33;;;;;;;2.30;2.10;;;1.80;99.90;;;;;;5031366;28;20221;-80
2023/12/06 02:04:59;;;;;;;2.47;2.00;;;1.80;99.90;;;;;;5031623;28;20199;-80
2023/12/06 02:07:27;;;;;;;2.20;2.00;;;1.80;99.90;;;;;;5032930;28;20189;-81
2023/12/06 02:09:52;;;;;;;2.50;2.10;;;1.80;99.90;;;;;;5030830;28;20234;-81
2023/12/06 02:12:18;;;;;;;2.10;1.90;;;1.80;99.90;;;;;;5032488;28;20216;-81
2023/12/06 02:14:43;;;;;;;2.70;2.03;;;1.80;99.90;;;;;;5032019;28;20259;-80
2023/12/06 02:17:10;;;;;;;2.40;2.20;;;1.80;99.90;;;;;;5032631;28;20176;-81
2023/12/06 02:19:37;;;;;;;2.50;2.30;;;1.80;99.90;;;;;;5030762;28;20214;-81
2023/12/06 02:22:03;;;;;;;2.80;2.40;;;1.80;99.90;;;;;;5031296;28;20685;-80
2023/12/06 02:24:34;;;;;;;2.93;2.63;;;1.80;99.90;;;;;;5031191;28;20279;-81
2023/12/06 02:26:59;;;;;;;2.80;2.60;;;1.80;99.90;;;;;;5032253;28;20693;-81
2023/12/06 02:29:25;;;;;;;2.97;2.50;;;1.80;99.90;;;;;;5030743;28;20184;-80
2023/12/06 02:31:51;;;;;;;3.17;2.67;;;1.80;99.90;;;;;;5032267;28;20243;-81
2023/12/06 02:34:23;;;;;;;3.10;2.77;;;1.80;99.90;;;;;;5032299;28;20176;-80
2023/12/06 02:36:53;;;;;;;3.00;2.60;;;1.80;99.90;;;;;;5032140;28;20180;-81
2023/12/06 02:39:19;;;;;;;3.60;2.97;;;1.80;99.90;;;;;;5031870;28;20268;-80
2023/12/06 02:41:44;;;;;;;3.83;3.20;;;1.80;99.90;;;;;;5030928;28;20180;-81
2023/12/06 02:44:10;;;;;;;3.50;3.17;;;1.80;99.90;;;;;;5031176;28;20186;-81
2023/12/06 02:46:36;;;;;;;3.87;3.43;;;1.80;99.90;;;;;;5031165;28;20188;-81
2023/12/06 02:49:02;;;;;;;4.67;3.73;;;1.90;99.90;;;;;;5032188;28;20193;-81
2023/12/06 02:51:28;;;;;;;5.07;4.10;;;1.90;99.90;;;;;;5028517;28;20231;-81
2023/12/06 02:53:54;;;;;;;4.40;3.70;;;1.90;99.90;;;;;;5030633;28;20211;-81
2023/12/06 02:56:20;;;;;;;4.33;3.60;;;1.90;99.90;;;;;;5032202;28;20177;-81
2023/12/06 02:58:45;;;;;;;5.23;4.00;;;2.00;99.90;;;;;;5032354;28;20184;-80
2023/12/06 03:01:11;;;;;;;5.23;3.87;;;1.90;99.90;;;;;;5030427;28;20231;-81
2023/12/06 03:03:36;;;;;;;5.03;4.00;;;2.00;99.90;;;;;;5031145;28;20699;-81
2023/12/06 03:06:02;;;;;;;5.40;3.90;;;2.00;99.90;;;;;;5032174;28;20212;-80
2023/12/06 03:08:27;;;;;;;5.00;3.90;;;2.00;99.90;;;;;;5032298;28;20207;-81
2023/12/06 03:10:53;;;;;;;4.47;3.80;;;2.00;99.90;;;;;;5031601;28;20186;-81
2023/12/06 03:13:19;;;;;;;4.07;3.30;;;2.00;99.90;;;;;;5032147;28;20687;-80
2023/12/06 03:15:44;;;;;;;4.80;3.40;;;2.00;99.90;;;;;;5031935;28;20210;-80
2023/12/06 03:18:10;;;;;;;3.93;3.43;;;2.10;99.90;;;;;;5030682;28;20183;-81
2023/12/06 03:20:35;;;;;;;3.90;3.50;;;2.00;99.90;;;;;;5031365;28;20269;-80
2023/12/06 03:23:01;;;;;;;4.77;3.87;;;2.00;99.90;;;;;;5030760;28;20235;-81
2023/12/06 03:25:26;;;;;;;4.20;3.40;;;2.00;99.90;;;;;;5031074;28;20544;-81
2023/12/06 03:27:53;;;;;;;4.03;3.57;;;2.00;99.90;;;;;;5035978;28;20672;-81
2023/12/06 03:30:18;;;;;;;4.80;4.07;;;2.10;99.90;;;;;;5035276;28;20177;-81
2023/12/06 03:32:44;;;;;;;5.00;3.90;;;2.10;99.90;;;;;;5035707;28;20209;-80
2023/12/06 03:35:09;;;;;;;4.80;3.67;;;2.10;99.90;;;;;;5035672;28;20595;-80
2023/12/06 03:37:35;;;;;;;5.33;3.80;;;2.10;99.90;;;;;;5034314;28;20189;-81
2023/12/06 03:40:00;;;;;;;4.60;3.90;;;2.20;99.90;;;;;;5034918;28;20176;-81
2023/12/06 03:42:26;;;;;;;4.77;4.00;;;2.10;99.90;;;;;;5029085;28;20232;-81
2023/12/06 03:44:52;;;;;;;4.27;3.63;;;2.10;99.90;;;;;;5033997;28;20267;-80
2023/12/06 03:47:17;;;;;;;5.47;4.27;;;2.10;99.90;;;;;;5034187;28;20207;-80
2023/12/06 03:49:43;;;;;;;5.10;3.90;;;2.10;99.90;;;;;;5033751;28;20224;-80
2023/12/06 03:52:09;;;;;;;4.77;3.67;;;2.10;99.90;;;;;;5035044;28;20204;-80
2023/12/06 03:54:35;;;;;;;4.47;3.80;;;2.10;99.90;;;;;;5035467;28;20681;-81
2023/12/06 03:57:01;;;;;;;4.87;3.87;;;2.10;99.90;;;;;;5035290;28;20200;-81
2023/12/06 03:59:26;;;;;;;4.53;3.43;;;2.10;99.90;;;;;;5033382;28;20178;-80
2023/12/06 04:01:52;;;;;;;3.87;3.47;;;2.10;99.90;;;;;;5033481;28;20191;-80
2023/12/06 04:04:17;;;;;;;5.80;3.93;;;2.10;99.90;;;;;;5033989;28;20189;-81
2023/12/06 04:06:43;;;;;;;4.67;3.60;;;2.10;99.90;;;;;;5034953;28;20267;-80
2023/12/06 04:09:10;;;;;;;4.53;3.40;;;2.10;99.90;;;;;;5034614;28;20177;-81
2023/12/06 04:11:36;;;;;;;4.40;3.50;;;2.10;99.90;;;;;;5034683;28;20231;-81
2023/12/06 04:14:03;;;;;;;3.60;3.10;;;2.10;99.90;;;;;;5034791;28;20338;-80
2023/12/06 04:16:29;;;;;;;5.03;3.70;;;2.10;99.90;;;;;;5033772;28;20179;-80
2023/12/06 04:18:55;;;;;;;4.60;3.40;;;2.10;99.90;;;;;;5032996;28;20229;-81
2023/12/06 04:21:21;;;;;;;4.10;2.93;;;2.10;99.90;;;;;;5032938;28;20221;-81
2023/12/06 04:23:48;;;;;;;3.63;3.00;;;2.10;99.90;;;;;;5033301;28;20594;-80
2023/12/06 04:26:13;;;;;;;4.30;3.10;;;2.10;99.90;;;;;;5034737;28;20178;-81
2023/12/06 04:28:39;;;;;;;3.60;3.07;;;2.10;99.90;;;;;;5033578;28;20181;-81
2023/12/06 04:31:05;;;;;;;4.70;3.40;;;2.00;99.90;;;;;;5034073;28;20672;-81
2023/12/06 04:33:30;;;;;;;4.67;3.30;;;2.10;99.90;;;;;;5033214;28;20200;-81
2023/12/06 04:35:56;;;;;;;4.50;3.20;;;2.10;99.90;;;;;;5033263;28;20185;-81
2023/12/06 04:38:22;;;;;;;4.13;3.30;;;2.10;99.90;;;;;;5033548;28;20267;-81
2023/12/06 04:40:47;;;;;;;4.03;3.27;;;2.00;99.90;;;;;;5032306;28;20181;-79
2023/12/06 04:43:13;;;;;;;4.87;3.30;;;2.10;99.90;;;;;;5034125;28;20709;-81
2023/12/06 04:45:39;;;;;;;3.97;3.23;;;2.10;99.90;;;;;;5033247;28;20186;-81
2023/12/06 04:48:05;;;;;;;4.27;3.50;;;2.10;99.90;;;;;;5033072;28;20235;-80
2023/12/06 04:50:31;;;;;;;4.63;3.00;;;2.10;99.90;;;;;;5032390;28;20603;-80
2023/12/06 04:52:57;;;;;;;3.57;2.90;;;2.10;99.90;;;;;;5032918;28;20213;-81
2023/12/06 04:55:22;;;;;;;3.57;3.00;;;2.10;99.90;;;;;;5032877;28;20204;-81
2023/12/06 04:57:48;;;;;;;3.40;2.97;;;2.10;99.90;;;;;;5032808;28;20201;-81
2023/12/06 05:00:14;;;;;;;3.37;2.87;;;2.10;99.90;;;;;;5033600;28;20174;-81
2023/12/06 05:02:39;;;;;;;4.03;2.80;;;2.20;99.90;;;;;;5033845;28;20224;-81
2023/12/06 05:05:05;;;;;;;5.53;3.10;;;2.20;99.90;;;;;;5033740;28;20208;-80
2023/12/06 05:07:31;;;;;;;4.57;3.40;;;2.20;99.90;;;;;;5034551;28;20212;-81
2023/12/06 05:09:56;;;;;;;3.73;3.10;;;2.20;99.90;;;;;;5032158;28;20209;-81
2023/12/06 05:12:22;;;;;;;3.60;3.10;;;2.20;99.90;;;;;;5033765;28;20213;-81
2023/12/06 05:14:47;;;;;;;3.83;3.10;;;2.20;99.90;;;;;;5032577;28;20180;-81
2023/12/06 05:17:13;;;;;;;4.83;3.23;;;2.20;99.90;;;;;;5033747;28;20642;-81
2023/12/06 05:19:38;;;;;;;4.70;3.43;;;2.20;99.90;;;;;;5033201;28;20169;-80
2023/12/06 05:22:04;;;;;;;4.07;3.27;;;2.20;99.90;;;;;;5033415;28;20285;-80
2023/12/06 05:24:30;;;;;;;3.47;3.10;;;2.20;99.90;;;;;;5032750;28;20533;-81
2023/12/06 05:26:55;;;;;;;4.23;3.40;;;2.20;99.90;;;;;;5032132;28;20199;-81
2023/12/06 05:29:21;;;;;;;4.03;3.23;;;2.20;99.90;;;;;;5033055;28;20184;-80
2023/12/06 05:31:46;;;;;;;4.13;3.50;;;2.20;99.90;;;;;;5034451;28;20204;-79
2023/12/06 05:34:12;;;;;;;4.70;3.40;;;2.30;99.90;;;;;;5034412;28;20245;-80
2023/12/06 05:36:37;;;;;;;7.50;4.67;;;2.40;99.90;;;;;;5032899;28;20182;-79
2023/12/06 05:39:06;;;;;;;3.20;2.90;;;3.00;99.90;;;;;;5033673;28;20228;-81
2023/12/06 05:41:32;;;;;;;4.07;3.20;;;3.30;99.90;;;;;;5033114;28;20213;-81
2023/12/06 05:43:57;;;;;;;3.97;3.40;;;3.30;99.90;;;;;;5030045;28;20213;-82
2023/12/06 05:46:23;;;;;;;3.57;3.20;;;3.10;99.90;;;;;;5031874;28;20183;-82
2023/12/06 05:48:49;;;;;;;4.37;3.40;;;2.90;99.90;;;;;;5032841;28;20187;-80
2023/12/06 05:51:14;;;;;;;4.17;3.60;;;2.80;99.90;;;;;;5031335;28;20197;-82
2023/12/06 05:53:40;;;;;;;4.90;3.87;;;2.60;99.90;;;;;;5031778;28;20195;-82
2023/12/06 05:56:06;;;;;;;4.80;3.80;;;2.50;99.90;;;;;;5033051;28;20538;-82
2023/12/06 05:58:32;;;;;;;5.20;4.07;;;2.50;99.90;;;;;;5033081;28;20255;-82
2023/12/06 06:00:58;;;;;;;5.03;3.87;;;2.40;99.90;;;;;;5032802;28;20178;-82
2023/12/06 06:03:24;;;;;;;5.27;4.27;;;2.40;99.90;;;;;;5032627;28;20209;-82
2023/12/06 06:05:50;;;;;;;5.50;4.07;;;2.40;99.90;;;;;;5031644;28;20175;-81
2023/12/06 06:08:15;;;;;;;7.43;4.90;;;2.40;99.90;;;;;;5032963;28;20174;-82
2023/12/06 06:10:41;;;;;;;6.50;4.67;;;2.40;99.90;;;;;;5031426;28;20209;-82
2023/12/06 06:13:06;;;;;;;5.80;4.50;;;2.30;99.90;;;;;;5031430;28;20205;-82
2023/12/06 06:15:32;;;;;;;7.20;4.53;;;2.40;99.90;;;;;;5031786;28;20243;-82
2023/12/06 06:17:57;;;;;;;7.47;4.97;;;2.40;99.90;;;;;;5031473;28;20178;-82
2023/12/06 06:20:23;;;;;;;5.57;4.70;;;2.40;99.90;;;;;;5030801;28;20183;-82
2023/12/06 06:22:48;;;;;;;6.30;4.93;;;2.40;99.90;;;;;;5031320;28;20288;-82
2023/12/06 06:25:14;;;;;;;7.03;5.50;;;2.40;99.90;;;;;;5032318;28;20210;-82
2023/12/06 06:27:40;;;;;;;5.97;4.93;;;2.40;99.90;;;;;;5031529;28;20224;-83
2023/12/06 06:30:06;;;;;;;7.93;5.40;;;2.40;99.90;;;;;;5030562;28;20182;-82
2023/12/06 06:32:32;;;;;;;6.50;5.27;;;2.40;99.90;;;;;;5030270;28;20214;-82
2023/12/06 06:34:57;;;;;;;6.87;5.50;;;2.50;99.90;;;;;;5030994;28;20549;-82
2023/12/06 06:37:24;;;;;;;6.70;5.03;;;2.50;99.90;;;;;;5031285;28;20170;-81
2023/12/06 06:39:49;;;;;;;8.37;6.00;;;2.50;99.90;;;;;;5031047;28;20175;-81
2023/12/06 06:42:15;;;;;;;8.30;5.80;;;2.50;99.90;;;;;;5031340;28;20432;-82
2023/12/06 06:44:40;;;;;;;8.07;6.23;;;2.50;99.90;;;;;;5031241;28;20189;-82
2023/12/06 06:47:06;;;;;;;8.07;5.93;;;2.50;99.90;;;;;;5032552;28;20179;-81
2023/12/06 06:49:32;;;;;;;6.93;5.63;;;2.50;99.90;;;;;;5031939;28;20277;-82
2023/12/06 06:51:57;;;;;;;9.37;6.00;;;2.50;99.90;;;;;;5030512;28;20217;-82
2023/12/06 06:54:24;;;;;;;7.40;5.97;;;2.50;99.90;;;;;;5031083;28;20184;-81
2023/12/06 06:56:49;;;;;;;7.53;5.80;;;2.50;99.90;;;;;;5032519;28;20184;-80
2023/12/06 06:59:15;;;;;;;8.17;5.60;;;2.50;99.90;;;;;;5030922;28;20185;-79
2023/12/06 07:01:41;;;;;;;8.50;6.00;;;2.50;99.90;;;;;;5034941;28;20204;-81
2023/12/06 07:04:07;;;;;;;8.03;5.80;;;2.50;99.90;;;;;;5034771;28;20194;-83
2023/12/06 07:06:32;;;;;;;9.03;6.53;;;2.50;99.90;;;;;;5036574;28;20557;-83
2023/12/06 07:08:58;;;;;;;9.47;6.00;;;2.50;99.90;;;;;;5035763;28;20289;-82
2023/12/06 07:11:23;;;;;;;9.30;6.30;;;2.50;99.90;;;;;;5035491;28;20198;-82
2023/12/06 07:13:49;;;;;;;9.00;6.17;;;2.50;99.90;;;;;;5036418;28;20232;-80
2023/12/06 07:16:15;;;;;;;8.80;6.00;;;2.50;99.90;;;;;;5036453;28;20170;-80
2023/12/06 07:18:41;;;;;;;8.33;6.00;;;2.50;99.90;;;;;;5035283;28;20189;-81
2023/12/06 07:21:07;;;;;;;7.97;6.13;;;2.50;99.90;;;;;;5035270;28;20174;-80
2023/12/06 07:23:33;;;;;;;7.97;5.97;;;2.50;99.90;;;;;;5035455;28;20581;-81
2023/12/06 07:25:58;;;;;;;7.60;6.20;;;2.50;99.90;;;;;;5035627;28;20638;-81
2023/12/06 07:28:24;;;;;;;9.60;6.23;;;2.50;99.90;;;;;;5036873;28;20228;-81
2023/12/06 07:30:50;;;;;;;9.70;6.53;;;2.50;99.90;;;;;;5034890;28;20171;-82
2023/12/06 07:33:15;;;;;;;8.07;6.37;;;2.50;99.90;;;;;;5035080;28;20246;-82
2023/12/06 07:35:41;;;;;;;9.13;6.50;;;2.50;99.90;;;;;;5035244;28;20178;-82
2023/12/06 07:38:09;;;;;;;10.50;6.60;;;2.50;99.90;;;;;;5036286;28;20173;-82
2023/12/06 07:40:35;;;;;;;10.63;6.60;;;2.50;99.90;;;;;;5034312;28;20209;-83
2023/12/06 07:43:01;;;;;;;8.97;6.53;;;2.60;99.90;;;;;;5034903;28;20198;-84
2023/12/06 07:45:27;;;;;;;8.90;6.07;;;2.60;99.90;;;;;;5035128;28;20174;-83
2023/12/06 07:47:52;;;;;;;9.07;6.30;;;2.60;99.90;;;;;;5035041;28;20177;-83
2023/12/06 07:50:20;;;;;;;9.50;6.70;;;2.60;99.90;;;;;;5033808;28;20715;-82
2023/12/06 07:52:46;;;;;;;8.30;6.03;;;2.50;99.90;;;;;;5035805;28;20212;-81
2023/12/06 07:55:12;;;;;;;8.87;6.30;;;2.50;99.90;;;;;;5035536;28;20184;-82
2023/12/06 07:57:38;;;;;;;9.30;6.40;;;2.50;99.90;;;;;;5035332;28;20170;-81
2023/12/06 08:00:07;;;;;;;8.50;6.07;;;2.50;99.90;;;;;;5034836;28;20171;-80
2023/12/06 08:02:35;;;;;;;8.33;6.20;;;2.50;99.90;;;;;;5035568;28;20278;-81
2023/12/06 08:05:02;;;;;;;7.87;5.87;;;2.50;99.90;;;;;;5034464;28;20294;-82
2023/12/06 08:07:28;;;;;;;9.10;6.80;;;2.50;99.90;;;;;;5035202;28;20173;-81
2023/12/06 08:09:53;;;;;;;7.83;5.90;;;2.60;99.90;;;;;;5033362;28;20181;-81
2023/12/06 08:12:20;;;;;;;8.43;5.83;;;2.60;99.90;;;;;;5033783;28;20308;-83
2023/12/06 08:14:45;;;;;;;8.10;6.07;;;2.60;99.90;;;;;;5033586;28;20206;-83
2023/12/06 08:17:11;;;;;;;8.33;6.00;;;2.60;99.90;;;;;;5033885;28;20213;-83
2023/12/06 08:19:37;;;;;;;8.10;6.50;;;2.60;99.90;;;;;;5034636;28;20194;-83
2023/12/06 08:22:02;;;;;;;8.73;6.07;;;2.60;99.90;;;;;;5033677;28;20205;-82
2023/12/06 08:24:28;;;;;;;11.53;7.17;;;2.60;99.90;;;;;;5034861;28;20570;-80
2023/12/06 08:26:54;;;;;;;7.50;4.97;;;2.60;99.90;;;;;;5033487;28;20189;-81
2023/12/06 08:29:20;;;;;;;6.57;5.20;;;2.70;99.90;;;;;;5032833;28;20181;-83
2023/12/06 08:31:46;;;;;;;5.80;4.80;;;2.60;99.90;;;;;;5034977;28;20209;-84
2023/12/06 08:34:11;;;;;;;6.63;4.73;;;2.60;99.90;;;;;;5034472;28;20253;-82
2023/12/06 08:36:37;;;;;;;7.17;4.73;;;2.60;99.90;;;;;;5034755;28;20324;-82
2023/12/06 08:39:03;;;;;;;6.77;4.90;;;2.60;99.90;;;;;;5034693;28;20181;-82
2023/12/06 08:41:29;;;;;;;5.63;4.60;;;2.50;99.90;;;;;;5033782;28;20178;-82
2023/12/06 08:43:54;;;;;;;5.63;4.73;;;2.50;99.90;;;;;;5034013;28;20204;-82
2023/12/06 08:46:20;;;;;;;6.13;4.37;;;2.50;99.90;;;;;;5034212;28;20233;-81
2023/12/06 08:48:46;;;;;;;5.50;4.50;;;2.50;99.90;;;;;;5034342;28;20192;-81
2023/12/06 08:51:12;;;;;;;6.23;4.47;;;2.50;99.90;;;;;;5033927;28;20186;-82
2023/12/06 08:53:38;;;;;;;4.53;4.03;;;2.50;99.90;;;;;;5034565;28;20193;-83
2023/12/06 08:56:04;;;;;;;5.93;4.10;;;2.50;99.90;;;;;;5032976;28;20187;-82
2023/12/06 08:58:29;;;;;;;4.77;3.90;;;2.50;99.90;;;;;;5034143;28;20182;-82
2023/12/06 09:00:55;;;;;;;5.80;4.40;;;2.40;99.90;;;;;;5034682;28;20645;-81
2023/12/06 09:03:21;;;;;;;4.37;3.83;;;2.40;99.90;;;;;;5100442;22;20306;-84
2023/12/06 09:05:47;;;;;;;4.83;3.60;;;2.40;99.90;;;;;;5049398;28;20181;-82
2023/12/06 09:08:14;;;;;;;5.43;4.27;;;2.40;99.90;;;;;;5053176;28;20177;-81
2023/12/06 09:10:40;;;;;;;4.67;4.00;;;2.40;99.90;;;;;;5053128;28;20256;-83
2023/12/06 09:13:05;;;;;;;4.77;3.80;;;2.40;99.90;;;;;;5050364;28;20301;-83
2023/12/06 09:15:31;;;;;;;5.30;4.40;;;2.40;99.90;;;;;;5031238;28;20276;-83
2023/12/06 09:17:57;;;;;;;4.77;3.80;;;2.40;99.90;;;;;;5032859;28;20220;-82
2023/12/06 09:20:23;;;;;;;4.80;3.60;;;2.40;99.90;;;;;;5032025;28;20223;-84
2023/12/06 09:22:49;;;;;;;4.90;4.13;;;2.40;99.90;;;;;;5031204;28;20211;-83
2023/12/06 09:25:14;;;;;;;4.30;3.60;;;2.40;99.90;;;;;;5030746;28;20169;-83
2023/12/06 09:27:40;;;;;;;3.80;3.40;;;2.40;99.90;;;;;;5048365;28;20603;-83
2023/12/06 09:30:08;;;;;;;4.57;3.30;;;2.30;99.90;;;;;;5032536;28;20165;-83
2023/12/06 09:32:33;;;;;;;5.33;4.60;;;2.30;99.90;;;;;;5033599;28;20202;-83
2023/12/06 09:34:59;;;;;;;4.40;3.33;;;2.30;99.90;;;;;;5031851;28;20169;-83
2023/12/06 09:37:24;;;;;;;3.57;3.07;;;2.30;99.90;;;;;;5048271;28;20245;-83
2023/12/06 09:39:50;;;;;;;4.33;3.40;;;2.20;99.90;;;;;;5032797;28;20267;-83
2023/12/06 09:42:15;;;;;;;4.50;3.20;;;2.20;99.90;;;;;;5032517;28;20213;-83
2023/12/06 09:44:41;;;;;;;4.07;3.60;;;2.20;99.90;;;;;;5033080;28;20184;-83
2023/12/06 09:47:07;;;;;;;6.50;4.60;;;2.10;99.90;;;;;;5048491;28;20179;-83
2023/12/06 09:49:33;;;;;;;4.37;3.90;;;2.10;99.90;;;;;;5047914;28;20181;-83
2023/12/06 09:52:10;;;;;;;6.10;4.07;;;2.20;99.90;;;;;;5032660;28;20209;-83
2023/12/06 09:54:43;;;;;;;8.57;6.60;;;2.10;99.90;;;;;;5047922;28;20183;-83
2023/12/06 09:57:10;;;;;;;6.30;5.00;;;2.10;99.90;;;;;;5032818;28;20177;-83
2023/12/06 09:59:36;;;;;;;6.50;4.83;;;2.10;99.90;;;;;;5047496;28;20177;-82
2023/12/06 10:02:02;;;;;;;6.13;4.83;;;2.10;99.90;;;;;;5048010;28;20671;-83
2023/12/06 10:04:28;;;;;;;7.17;5.67;;;2.10;99.90;;;;;;5031142;28;20259;-83
2023/12/06 10:06:54;;;;;;;7.07;5.70;;;2.00;99.90;;;;;;5031341;28;20198;-83
2023/12/06 10:09:20;;;;;;;7.07;5.43;;;2.10;99.90;;;;;;5047534;28;20192;-83
2023/12/06 10:11:47;;;;;;;7.50;5.33;;;2.00;99.90;;;;;;5047991;28;20275;-83
2023/12/06 10:14:17;;;;;;;6.93;5.37;;;2.00;99.90;;;;;;5047792;28;20582;-83
2023/12/06 10:16:44;;;;;;;10.60;6.83;;;2.00;99.90;;;;;;5047701;28;20181;-83
2023/12/06 10:19:10;;;;;;;8.83;6.57;;;2.00;99.90;;;;;;5033254;28;20185;-82
2023/12/06 10:21:35;;;;;;;10.30;7.00;;;2.00;99.90;;;;;;5030603;28;20570;-82
2023/12/06 10:24:01;;;;;;;7.83;6.03;;;2.00;99.90;;;;;;5029915;28;20201;-82
2023/12/06 10:26:30;;;;;;;9.70;7.60;;;2.00;99.90;;;;;;5031813;28;20539;-83
2023/12/06 10:28:56;;;;;;;7.83;6.00;;;2.10;99.90;;;;;;5039013;28;20216;-83
2023/12/06 10:31:22;;;;;;;9.37;7.67;;;2.10;99.90;;;;;;5036942;28;20216;-81
2023/12/06 10:33:55;;;;;;;9.63;6.83;;;2.10;99.90;;;;;;5032089;28;20197;-81
2023/12/06 10:36:21;;;;;;;9.70;7.20;;;2.10;99.90;;;;;;5029914;28;20208;-83
2023/12/06 10:38:47;;;;;;;9.03;6.37;;;2.10;99.90;;;;;;5030883;28;20239;-83
2023/12/06 10:41:17;;;;;;;7.73;5.80;;;2.10;99.90;;;;;;5030228;28;20177;-84
2023/12/06 10:43:43;;;;;;;7.47;5.50;;;2.10;99.90;;;;;;5030821;28;20228;-83
2023/12/06 10:46:11;;;;;;;8.10;6.13;;;2.10;99.90;;;;;;5031969;28;20201;-82
2023/12/06 10:48:38;;;;;;;7.53;5.50;;;2.10;99.90;;;;;;5030765;28;20180;-82
2023/12/06 10:51:05;;;;;;;7.13;5.50;;;2.10;99.90;;;;;;5031577;28;20171;-83
2023/12/06 10:53:31;;;;;;;8.13;5.73;;;2.10;99.90;;;;;;5030607;28;20754;-84
2023/12/06 10:55:59;;;;;;;7.30;5.87;;;2.10;99.90;;;;;;5030657;28;20177;-83
2023/12/06 10:58:25;;;;;;;8.43;5.50;;;2.00;99.90;;;;;;5030597;28;20176;-84
2023/12/06 11:00:51;;;;;;;9.33;6.23;;;1.90;99.90;;;;;;5041043;28;20275;-84
2023/12/06 11:03:16;;;;;;;9.43;6.33;;;2.00;99.90;;;;;;5031364;28;20213;-84
2023/12/06 11:05:50;;;;;;;9.10;6.20;;;1.90;99.90;;;;;;5030580;28;20262;-84
2023/12/06 11:08:58;;;;;;;9.80;7.00;;;1.90;99.90;;;;;;5030638;28;20189;-85
2023/12/06 11:11:39;;;;;;;9.30;6.07;;;1.90;99.90;;;;;;5039439;28;20262;-83
2023/12/06 11:14:20;;;;;;;10.93;7.20;;;1.90;99.90;;;;;;5031820;28;20184;-82
2023/12/06 11:16:54;;;;;;;11.60;7.20;;;1.90;99.90;;;;;;5030749;28;20172;-83
2023/12/06 11:19:21;;;;;;;10.80;7.10;;;1.90;99.90;;;;;;5030001;28;20179;-82
2023/12/06 11:21:47;;;;;;;10.77;7.60;;;1.80;99.90;;;;;;5031712;28;20177;-82
2023/12/06 11:24:13;;;;;;;11.83;8.63;;;1.90;99.90;;;;;;5030611;28;20287;-82
2023/12/06 11:26:39;;;;;;;13.73;8.43;;;1.90;99.90;;;;;;5031987;28;20600;-82
2023/12/06 11:29:06;;;;;;;12.93;8.60;;;1.90;99.90;;;;;;5030529;28;20272;-84
2023/12/06 11:31:37;;;;;;;12.00;7.90;;;1.80;99.90;;;;;;5029933;28;20295;-83
2023/12/06 11:34:09;;;;;;;12.10;8.90;;;1.90;99.90;;;;;;5030440;28;20188;-83
2023/12/06 11:36:37;;;;;;;13.40;7.77;;;1.90;99.90;;;;;;5030370;28;20199;-83
2023/12/06 11:39:15;;;;;;;13.60;8.47;;;1.90;99.90;;;;;;5030279;28;20264;-83
2023/12/06 11:41:53;;;;;;;12.07;7.77;;;1.90;99.90;;;;;;5031669;28;20188;-82
2023/12/06 11:44:19;;;;;;;12.37;8.23;;;1.90;99.90;;;;;;5034880;28;20209;-83
2023/12/06 11:46:50;;;;;;;10.07;5.97;;;1.90;99.90;;;;;;5035669;28;20177;-83
2023/12/06 11:49:16;;;;;;;13.43;8.57;;;1.90;99.90;;;;;;5029811;28;20180;-81
2023/12/06 11:51:42;;;;;;;11.80;7.83;;;1.80;99.90;;;;;;5033623;28;20691;-83
2023/12/06 11:54:08;;;;;;;12.53;8.23;;;1.80;99.90;;;;;;5033586;28;20199;-83
2023/12/06 11:56:33;;;;;;;9.63;6.43;;;1.90;99.90;;;;;;5033315;28;20235;-83
2023/12/06 11:59:02;;;;;;;12.23;8.40;;;1.90;99.90;;;;;;5034550;28;20172;-83
2023/12/06 12:01:29;;;;;;;12.43;8.00;;;1.80;99.90;;;;;;5032908;28;20176;-83
2023/12/06 12:03:55;;;;;;;13.70;9.10;;;1.80;99.90;;;;;;5034561;28;20295;-83
2023/12/06 12:06:23;;;;;;;11.33;8.20;;;1.80;99.90;;;;;;5032064;28;20271;-83
2023/12/06 12:08:49;;;;;;;10.87;7.53;;;1.80;99.90;;;;;;5031300;28;20175;-82
2023/12/06 12:11:17;;;;;;;11.17;7.97;;;1.80;99.90;;;;;;5034318;28;20231;-83
2023/12/06 12:13:42;;;;;;;10.67;7.87;;;1.80;99.90;;;;;;5034765;28;20197;-83
2023/12/06 12:16:10;;;;;;;23.43;12.93;;;1.80;99.90;;;;;;5034222;28;20177;-84
2023/12/06 12:18:35;;;;;;;39.73;18.27;;;1.70;99.90;;;;;;5034643;28;20196;-83
2023/12/06 12:21:10;;;;;;;25.53;15.47;;;1.80;99.90;;;;;;5032539;28;20271;-85
2023/12/06 12:23:35;;;;;;;25.50;14.60;;;1.80;99.90;;;;;;5029384;28;20201;-84
2023/12/06 12:26:01;;;;;;;17.33;11.33;;;1.80;99.90;;;;;;5033213;28;20223;-84
2023/12/06 12:28:26;;;;;;;15.43;10.70;;;1.70;99.90;;;;;;5032738;28;20608;-84
2023/12/06 12:31:03;;;;;;;15.33;10.93;;;1.60;99.90;;;;;;5029924;28;20235;-83
2023/12/06 12:33:29;;;;;;;15.47;10.13;;;1.60;99.90;;;;;;5032765;28;20210;-85
2023/12/06 12:35:56;;;;;;;14.17;10.70;;;1.60;99.90;;;;;;5032868;28;20176;-83
2023/12/06 12:38:22;;;;;;;17.43;11.73;;;1.60;99.90;;;;;;5032862;28;20169;-83
2023/12/06 12:40:48;;;;;;;21.40;14.03;;;1.60;99.90;;;;;;5032430;28;20257;-83
2023/12/06 12:43:15;;;;;;;18.83;12.67;;;1.70;99.90;;;;;;5033895;28;20204;-84
2023/12/06 12:45:41;;;;;;;16.53;10.83;;;1.70;99.90;;;;;;5032885;28;20178;-83
2023/12/06 12:48:07;;;;;;;16.13;10.53;;;1.70;99.90;;;;;;5032827;28;20180;-84
2023/12/06 12:50:33;;;;;;;13.73;10.00;;;1.70;99.90;;;;;;5024355;28;20206;-83